Time;durP1;ratioP1;P1;durP2;ratioP2;P2;SDS_P1;SDS_P2;PMS_P1;PMS_P2;Temp;Humidity;BMP_temperature;BMP_pressure;BME280_temperature;BME280_humidity;BME280_pressure;Samples;Min_cycle;Max_cycle;Signal;HPM_P1;HPM_P2
2023/01/16 00:00:59;;;;;;;174.68;103.80;;;;;;;;;;4856668;29;20399;-80
2023/01/16 00:06:51;;;;;;;127.75;74.38;;;;;;;;;;4858249;29;20033;-82
2023/01/16 00:16:07;;;;;;;138.45;77.85;;;51.80;2227.20;;;;;;4859120;29;20031;-81
2023/01/16 00:18:37;;;;;;;132.55;80.80;;;51.90;2227.20;;;;;;4855786;29;20120;-83
2023/01/16 00:27:29;;;;;;;145.98;86.55;;;52.00;2227.20;;;;;;4532984;27;20068;-82
2023/01/16 00:30:22;;;;;;;212.60;115.47;;;52.10;2227.20;;;;;;4925289;29;20039;-83
2023/01/16 05:14:47;;;;;;;102.95;60.42;;;51.80;2227.20;;;;;;4965587;23;20052;-82
2023/01/16 06:50:06;;;;;;;103.47;47.00;;;128.00;2252.80;;;;;;4897989;29;20080;-86
2023/01/16 06:52:37;;;;;;;118.22;53.65;;;128.10;2252.80;;;;;;4897430;29;20028;-86
2023/01/16 06:55:04;;;;;;;126.65;57.20;;;128.20;2252.80;;;;;;4897893;29;20119;-86
2023/01/16 06:57:30;;;;;;;103.50;53.85;;;128.20;2252.80;;;;;;4897859;29;20535;-86
2023/01/16 06:59:56;;;;;;;104.50;56.00;;;128.30;2252.80;;;;;;4882446;29;20453;-86
2023/01/16 07:02:22;;;;;;;83.97;43.97;;;128.40;2252.80;;;;;;4897391;29;20060;-86
2023/01/16 07:04:47;;;;;;;74.40;43.70;;;128.40;2252.80;;;;;;4897731;29;20493;-87
2023/01/16 07:07:13;;;;;;;59.95;35.08;;;128.40;2252.80;;;;;;4898047;29;20044;-84
2023/01/16 07:09:39;;;;;;;73.38;45.33;;;128.40;2252.80;;;;;;4898143;29;20382;-86
2023/01/16 07:12:05;;;;;;;79.88;50.10;;;128.50;2252.80;;;;;;4897948;29;20033;-87
2023/01/16 07:22:45;;;;;;;35.10;23.95;;;128.50;2252.80;;;;;;4898658;29;20071;-86
2023/01/16 07:25:18;;;;;;;31.23;20.08;;;128.60;2252.80;;;;;;4897805;29;20048;-86
2023/01/16 07:27:48;;;;;;;33.35;19.90;;;128.60;2252.80;;;;;;4898016;29;20102;-86
2023/01/16 07:30:15;;;;;;;38.13;25.23;;;128.70;2252.80;;;;;;4897537;29;20029;-87
2023/01/16 07:32:42;;;;;;;30.85;22.13;;;128.60;2252.80;;;;;;4897796;29;20464;-87
2023/01/16 07:35:08;;;;;;;33.35;22.15;;;128.60;2252.80;;;;;;4893354;29;20045;-87
2023/01/16 07:37:34;;;;;;;30.30;19.77;;;128.70;2252.80;;;;;;4863634;29;20037;-87
2023/01/16 07:40:00;;;;;;;30.33;17.92;;;128.70;2252.80;;;;;;4862741;29;20124;-85
2023/01/16 07:42:25;;;;;;;29.08;20.55;;;128.70;2252.80;;;;;;4863378;29;20496;-87
2023/01/16 07:44:51;;;;;;;32.28;21.52;;;128.70;2252.80;;;;;;4863568;29;20033;-87
2023/01/16 07:47:17;;;;;;;32.22;22.38;;;128.70;2252.80;;;;;;4863486;29;20033;-88
2023/01/16 07:49:43;;;;;;;31.80;20.33;;;128.70;2252.80;;;;;;4863359;29;20036;-87
2023/01/16 07:52:09;;;;;;;35.22;21.75;;;128.70;2252.80;;;;;;4863590;29;20036;-89
2023/01/16 07:54:36;;;;;;;28.60;20.23;;;128.80;2252.80;;;;;;4863504;29;20060;-88
2023/01/16 07:57:02;;;;;;;31.63;21.77;;;128.80;2252.80;;;;;;4863695;29;20525;-87
2023/01/16 07:59:28;;;;;;;33.90;24.08;;;128.80;2252.80;;;;;;4863382;29;20104;-88
2023/01/16 08:01:54;;;;;;;33.55;23.70;;;128.80;2252.80;;;;;;4866477;29;20081;-87
2023/01/16 08:04:19;;;;;;;36.97;24.05;;;128.80;2252.80;;;;;;4866735;29;20033;-87
2023/01/16 08:06:45;;;;;;;32.35;21.00;;;128.80;2252.80;;;;;;4882134;29;20033;-86
2023/01/16 08:09:12;;;;;;;38.53;25.33;;;128.90;2252.80;;;;;;4885119;29;20036;-87
2023/01/16 08:11:46;;;;;;;33.38;22.85;;;128.90;2252.80;;;;;;4883877;29;20043;-84
2023/01/16 08:14:13;;;;;;;33.40;21.92;;;128.90;2252.80;;;;;;4884218;29;20036;-85
2023/01/16 08:16:38;;;;;;;33.65;22.83;;;128.90;2252.80;;;;;;4885495;29;20037;-86
2023/01/16 08:19:04;;;;;;;35.42;21.30;;;128.90;2252.80;;;;;;4883463;29;20128;-86
2023/01/16 08:21:30;;;;;;;39.88;26.17;;;153.60;2252.80;;;;;;4884448;29;20528;-85
2023/01/16 08:23:56;;;;;;;39.97;26.20;;;128.90;2252.80;;;;;;4885079;29;20080;-85
2023/01/16 08:26:22;;;;;;;41.72;26.08;;;153.60;2252.80;;;;;;4884911;29;20079;-87
2023/01/16 08:28:48;;;;;;;39.58;25.88;;;153.70;2252.80;;;;;;4885003;29;20076;-87
2023/01/16 08:31:15;;;;;;;34.08;24.20;;;153.70;2252.80;;;;;;4885026;29;20434;-86
2023/01/16 08:33:42;;;;;;;38.17;24.45;;;153.70;2252.80;;;;;;4885045;29;20067;-87
2023/01/16 08:36:10;;;;;;;39.45;25.80;;;153.70;2252.80;;;;;;4885037;29;20465;-86
2023/01/16 08:38:36;;;;;;;37.33;24.13;;;153.70;2252.80;;;;;;4884734;29;20033;-87
2023/01/16 08:41:02;;;;;;;37.95;24.70;;;153.80;2252.80;;;;;;4884776;29;20127;-86
2023/01/16 08:51:54;;;;;;;40.95;26.33;;;154.00;2252.80;;;;;;4901520;29;20047;-87
2023/01/16 08:54:20;;;;;;;42.38;26.98;;;153.90;2252.80;;;;;;4884574;29;20033;-89
2023/01/16 08:56:46;;;;;;;46.88;28.20;;;153.90;2252.80;;;;;;4884805;29;20555;-88
2023/01/16 08:59:12;;;;;;;38.53;23.40;;;154.00;2252.80;;;;;;4884584;29;20036;-86
2023/01/16 09:01:38;;;;;;;40.70;25.30;;;154.10;2252.80;;;;;;4884842;29;20468;-88
2023/01/16 09:04:05;;;;;;;51.45;35.55;;;154.10;2252.80;;;;;;4884494;29;20384;-88
2023/01/16 09:06:31;;;;;;;50.30;27.10;;;154.10;2252.80;;;;;;4884546;29;20088;-87
2023/01/16 09:08:57;;;;;;;75.95;51.15;;;154.10;2252.80;;;;;;4884629;29;20083;-86
2023/01/16 09:14:07;;;;;;;52.05;33.97;;;154.40;2252.80;;;;;;4900843;29;20104;-86
2023/01/16 09:16:33;;;;;;;49.42;35.03;;;154.50;2252.80;;;;;;4884801;29;20449;-87
2023/01/16 09:18:59;;;;;;;133.48;79.30;;;154.50;2252.80;;;;;;4884546;29;20029;-86
2023/01/16 09:21:24;;;;;;;108.30;62.85;;;179.30;2252.80;;;;;;4884313;29;20040;-86
2023/01/16 09:23:51;;;;;;;174.35;105.50;;;179.50;2252.80;;;;;;4877348;29;20049;-88
2023/01/16 09:26:17;;;;;;;35.15;24.35;;;179.60;2252.80;;;;;;4865713;29;20029;-86
2023/01/16 09:28:43;;;;;;;89.90;68.20;;;179.90;2252.80;;;;;;4865522;29;20068;-87
2023/01/16 09:31:09;;;;;;;66.43;49.08;;;180.00;2252.80;;;;;;4865544;29;20112;-86
2023/01/16 09:33:36;;;;;;;81.15;67.70;;;180.10;2252.80;;;;;;4865754;29;20091;-87
2023/01/16 09:36:03;;;;;;;43.03;34.00;;;180.00;2252.80;;;;;;4865630;29;20465;-84
2023/01/16 09:38:29;;;;;;;34.55;27.67;;;180.10;2252.80;;;;;;4868150;29;20387;-86
2023/01/16 09:40:57;;;;;;;25.65;19.95;;;180.10;2252.80;;;;;;4881175;29;20055;-87
2023/01/16 09:43:49;;;;;;;23.45;16.88;;;204.90;2252.80;;;;;;4868148;29;20040;-84
2023/01/16 09:46:19;;;;;;;23.70;13.85;;;205.10;2252.80;;;;;;4860756;29;20037;-87
2023/01/16 09:49:07;;;;;;;18.65;13.65;;;205.10;2252.80;;;;;;4867124;29;20024;-83
2023/01/16 09:51:41;;;;;;;20.23;11.63;;;205.20;2252.80;;;;;;4865765;29;20040;-86
2023/01/16 10:00:00;;;;;;;23.67;17.67;;;205.30;2252.80;;;;;;4881735;29;20488;-86
2023/01/16 10:02:27;;;;;;;23.20;14.60;;;205.30;2252.80;;;;;;4864678;29;20073;-87
2023/01/16 10:04:57;;;;;;;29.25;17.10;;;205.30;2252.80;;;;;;4865005;29;20049;-88
2023/01/16 10:07:43;;;;;;;26.67;19.20;;;205.10;2252.80;;;;;;4864777;29;20029;-88
2023/01/16 10:10:37;;;;;;;28.92;18.00;;;205.30;2252.80;;;;;;4880213;29;20025;-85
2023/01/16 10:13:34;;;;;;;32.28;20.83;;;205.30;2252.80;;;;;;4880338;29;20512;-83
2023/01/16 10:16:36;;;;;;;27.60;19.20;;;205.30;2252.80;;;;;;4847436;29;20037;-84
2023/01/16 10:19:26;;;;;;;24.60;16.00;;;205.30;2252.80;;;;;;4869366;29;20366;-87
2023/01/16 10:22:31;;;;;;;30.63;19.13;;;205.30;2252.80;;;;;;4879865;29;20100;-88
2023/01/16 10:25:05;;;;;;;31.67;19.58;;;205.40;2252.80;;;;;;4864162;29;20059;-88
2023/01/16 10:28:06;;;;;;;26.02;16.75;;;205.40;2252.80;;;;;;4864922;29;20056;-89
2023/01/16 10:30:55;;;;;;;33.35;21.70;;;205.40;2252.80;;;;;;4844592;29;20093;-89
2023/01/16 10:33:40;;;;;;;27.33;16.10;;;205.20;2252.80;;;;;;4855769;29;20052;-87
2023/01/16 10:36:11;;;;;;;25.02;17.85;;;205.40;2252.80;;;;;;4869578;29;20499;-89
2023/01/16 10:38:48;;;;;;;30.48;19.48;;;205.50;2252.80;;;;;;4866674;29;20033;-88
2023/01/16 10:49:42;;;;;;;26.48;18.88;;;205.60;2252.80;;;;;;4898319;29;20043;-86
2023/01/16 10:52:08;;;;;;;25.73;17.50;;;205.60;2252.80;;;;;;4876540;29;20033;-90
2023/01/16 10:54:33;;;;;;;24.80;17.45;;;205.60;2252.80;;;;;;4899476;29;20065;-87
2023/01/16 10:57:03;;;;;;;22.50;16.85;;;205.60;2252.80;;;;;;4882686;29;20035;-90
2023/01/16 10:59:31;;;;;;;21.30;15.15;;;205.50;2252.80;;;;;;4882048;29;20089;-90
2023/01/16 11:02:04;;;;;;;21.60;14.27;;;205.50;2252.80;;;;;;4876880;29;20037;-87
2023/01/16 11:04:33;;;;;;;;;;;205.50;2252.80;;;;;;4864574;29;20124;-88
2023/01/16 11:07:17;;;;;;;20.33;13.50;;;205.60;2252.80;;;;;;4863970;29;19954;-86
2023/01/16 11:09:47;;;;;;;17.85;12.20;;;205.60;2252.80;;;;;;4861541;29;20060;-86
2023/01/16 11:18:34;;;;;;;18.33;9.65;;;205.50;2252.80;;;;;;4880549;29;20041;-88
2023/01/16 11:21:21;;;;;;;21.90;13.37;;;205.50;2252.80;;;;;;4850565;29;20044;-88
2023/01/16 11:23:48;;;;;;;19.77;13.43;;;205.60;2252.80;;;;;;4858611;29;20501;-87
2023/01/16 11:26:16;;;;;;;21.88;15.23;;;205.50;2252.80;;;;;;4868597;29;20036;-88
2023/01/16 11:28:47;;;;;;;22.08;15.82;;;205.60;2252.80;;;;;;4866065;29;20029;-89
2023/01/16 11:31:24;;;;;;;29.80;20.13;;;205.60;2252.80;;;;;;4863910;29;20048;-88
2023/01/16 11:34:00;;;;;;;22.10;13.77;;;205.60;2252.80;;;;;;4867869;29;20123;-87
2023/01/16 11:36:31;;;;;;;18.73;13.15;;;205.70;2252.80;;;;;;4871626;29;20068;-89
2023/01/16 11:38:57;;;;;;;22.45;14.90;;;205.70;2252.80;;;;;;4879964;29;20068;-89
2023/01/16 11:41:37;;;;;;;26.45;19.73;;;205.70;2252.80;;;;;;4874497;29;20397;-88
2023/01/16 11:47:00;;;;;;;19.08;14.40;;;205.70;2252.80;;;;;;4885447;29;20073;-88
2023/01/16 11:49:39;;;;;;;20.52;14.10;;;205.70;2252.80;;;;;;4875436;29;20025;-88
2023/01/16 11:52:05;;;;;;;24.58;17.40;;;205.70;2252.80;;;;;;4869584;29;20036;-92
2023/01/16 11:54:34;;;;;;;28.23;18.85;;;205.70;2252.80;;;;;;4896727;29;20029;-90
2023/01/16 11:57:05;;;;;;;19.42;14.23;;;205.70;2252.80;;;;;;4866138;29;20081;-90
2023/01/16 12:00:05;;;;;;;17.13;12.48;;;205.70;2252.80;;;;;;4852267;29;20035;-90
2023/01/16 12:03:08;;;;;;;18.95;14.52;;;205.70;2252.80;;;;;;4868679;29;20045;-87
2023/01/16 12:05:56;;;;;;;20.02;14.38;;;205.70;2252.80;;;;;;4867149;29;20036;-88
2023/01/16 12:08:40;;;;;;;22.98;14.80;;;205.70;2252.80;;;;;;4874689;29;20037;-89
2023/01/16 12:11:29;;;;;;;21.67;14.30;;;205.70;2252.80;;;;;;4878120;29;20037;-90
2023/01/16 12:14:21;;;;;;;22.95;15.88;;;205.70;2252.80;;;;;;4861540;29;20037;-88
2023/01/16 12:17:00;;;;;;;25.75;16.13;;;205.70;2252.80;;;;;;4886603;29;20029;-89
2023/01/16 12:19:41;;;;;;;25.40;17.58;;;205.70;2252.80;;;;;;4874118;29;20041;-90
2023/01/16 12:22:46;;;;;;;24.13;15.98;;;205.70;2252.80;;;;;;4876806;29;20056;-89
2023/01/16 12:25:15;;;;;;;21.85;13.73;;;205.70;2252.80;;;;;;4864794;29;20072;-93
2023/01/16 12:27:50;;;;;;;19.65;14.13;;;205.70;2252.80;;;;;;4866923;29;20035;-86
2023/01/16 12:30:34;;;;;;;23.10;13.43;;;205.70;2252.80;;;;;;4866500;29;20128;-88
2023/01/16 12:33:21;;;;;;;23.13;16.55;;;205.70;2252.80;;;;;;4866921;29;20033;-88
2023/01/16 12:36:06;;;;;;;25.42;15.77;;;205.70;2252.80;;;;;;4867205;29;20031;-88
2023/01/16 12:38:41;;;;;;;20.73;13.82;;;205.70;2252.80;;;;;;4876190;29;20040;-89
2023/01/16 12:44:34;;;;;;;34.90;23.23;;;230.40;2252.80;;;;;;4885453;29;20044;-89
2023/01/16 12:47:16;;;;;;;26.55;18.77;;;230.40;2252.80;;;;;;4870305;29;20115;-88
2023/01/16 12:50:09;;;;;;;39.70;25.25;;;230.40;2252.80;;;;;;4861121;29;20573;-87
2023/01/16 12:52:58;;;;;;;22.55;15.95;;;205.70;2252.80;;;;;;4864018;29;20061;-87
2023/01/16 12:56:18;;;;;;;38.97;23.00;;;205.70;2252.80;;;;;;4866506;29;20036;-88
2023/01/16 12:58:53;;;;;;;28.20;19.67;;;205.70;2252.80;;;;;;4851148;29;20037;-88
2023/01/16 13:01:34;;;;;;;39.08;25.48;;;205.70;2252.80;;;;;;4866792;29;20045;-86
2023/01/16 13:04:25;;;;;;;35.42;23.92;;;205.70;2252.80;;;;;;4866304;29;20384;-88
2023/01/16 13:06:56;;;;;;;30.45;19.70;;;205.60;2252.80;;;;;;4866294;29;20033;-87
2023/01/16 13:09:40;;;;;;;28.33;20.58;;;205.60;2252.80;;;;;;4870681;29;20036;-88
2023/01/16 13:15:12;;;;;;;31.05;18.42;;;205.60;2252.80;;;;;;4889198;29;20032;-90
2023/01/16 13:18:25;;;;;;;22.67;15.70;;;205.60;2252.80;;;;;;4872934;29;20048;-90
2023/01/16 13:20:59;;;;;;;20.17;13.93;;;205.60;2252.80;;;;;;4875970;29;20045;-88
2023/01/16 13:23:39;;;;;;;25.23;15.82;;;205.50;2252.80;;;;;;4854322;29;20136;-89
2023/01/16 13:26:13;;;;;;;19.35;13.82;;;205.60;2252.80;;;;;;4846764;29;20029;-87
2023/01/16 13:28:57;;;;;;;21.73;14.95;;;205.60;2252.80;;;;;;4845995;29;20049;-90
2023/01/16 13:31:33;;;;;;;21.58;15.73;;;205.60;2252.80;;;;;;4862627;29;20038;-87
2023/01/16 13:34:08;;;;;;;19.10;13.57;;;205.70;2252.80;;;;;;4846810;29;20105;-89
2023/01/16 13:36:52;;;;;;;21.65;15.23;;;205.70;2252.80;;;;;;4847468;29;20040;-89
2023/01/16 13:39:37;;;;;;;24.70;15.48;;;205.70;2252.80;;;;;;4857919;29;20035;-89
2023/01/16 13:42:07;;;;;;;23.88;15.07;;;230.40;2252.80;;;;;;4866424;29;20033;-86
2023/01/16 13:47:35;;;;;;;24.92;18.20;;;230.50;2252.80;;;;;;4881671;29;20036;-87
2023/01/16 13:50:15;;;;;;;26.90;18.10;;;230.50;2252.80;;;;;;4865166;29;20037;-89
2023/01/16 13:52:42;;;;;;;25.35;17.48;;;230.60;2252.80;;;;;;4881070;29;20280;-89
2023/01/16 13:55:26;;;;;;;28.83;17.77;;;230.60;2252.80;;;;;;4865593;29;20480;-89
2023/01/16 13:57:54;;;;;;;21.52;14.48;;;230.60;2252.80;;;;;;4864437;29;20029;-90
2023/01/16 14:00:21;;;;;;;17.35;12.63;;;230.60;2252.80;;;;;;4865287;29;20457;-89
2023/01/16 14:03:21;;;;;;;25.30;18.13;;;230.60;2252.80;;;;;;4866388;29;20064;-88
2023/01/16 14:05:52;;;;;;;20.00;14.38;;;230.70;2252.80;;;;;;4867255;29;20081;-89
2023/01/16 14:09:06;;;;;;;22.88;16.13;;;230.90;2252.80;;;;;;4867436;29;20045;-80
2023/01/16 14:12:01;;;;;;;28.58;19.30;;;231.20;2252.80;;;;;;4885961;29;20037;-80
2023/01/16 14:17:28;;;;;;;25.40;17.55;;;256.40;2252.80;;;;;;4883724;29;20036;-86
2023/01/16 14:20:01;;;;;;;27.42;17.80;;;256.80;2252.80;;;;;;4866106;29;20026;-87
2023/01/16 14:25:29;;;;;;;22.02;14.13;;;256.90;2252.80;;;;;;4900315;29;20413;-87
2023/01/16 14:27:55;;;;;;;20.52;13.07;;;281.60;2278.40;;;;;;4899380;29;20029;-87
2023/01/16 14:30:25;;;;;;;40.10;28.48;;;256.80;2252.80;;;;;;4899081;29;20067;-88
2023/01/16 14:32:56;;;;;;;18.42;14.70;;;256.70;2252.80;;;;;;4888442;29;20535;-84
2023/01/16 14:35:30;;;;;;;13.02;8.70;;;256.60;2252.80;;;;;;4884068;29;20032;-86
2023/01/16 14:37:55;;;;;;;21.10;12.48;;;256.50;2252.80;;;;;;4863504;29;20033;-88
2023/01/16 14:55:13;;;;;;;20.25;13.10;;;256.50;2252.80;;;;;;4863660;29;20378;-86
2023/01/16 14:55:14;;;;;;;21.15;15.18;;;256.40;2252.80;;;;;;4880805;29;20144;-84
2023/01/16 14:57:41;;;;;;;14.63;10.88;;;256.40;2252.80;;;;;;4863814;29;20088;-85
2023/01/16 15:00:14;;;;;;;14.73;10.75;;;256.40;2252.80;;;;;;4879907;29;20025;-87
2023/01/16 15:02:53;;;;;;;15.13;10.80;;;256.30;2252.80;;;;;;4890444;29;20479;-87
2023/01/16 15:05:51;;;;;;;21.23;11.18;;;256.30;2252.80;;;;;;4884699;29;20115;-89
2023/01/16 15:08:38;;;;;;;17.50;10.20;;;256.20;2252.80;;;;;;4882653;29;20064;-86
2023/01/16 15:11:31;;;;;;;16.52;10.98;;;256.20;2252.80;;;;;;4882190;29;20024;-86
2023/01/16 15:14:33;;;;;;;17.90;13.07;;;256.10;2252.80;;;;;;4882293;29;20043;-88
2023/01/16 15:22:49;;;;;;;18.17;13.40;;;256.00;2252.80;;;;;;4898896;29;20128;-88
2023/01/16 15:25:37;;;;;;;19.13;13.40;;;231.30;2252.80;;;;;;4881598;29;20052;-86
2023/01/16 15:28:26;;;;;;;18.13;13.43;;;231.30;2252.80;;;;;;4882686;29;20037;-87
2023/01/16 15:30:59;;;;;;;23.45;15.13;;;231.30;2252.80;;;;;;4889364;29;20028;-85
2023/01/16 15:33:47;;;;;;;25.33;17.00;;;231.20;2252.80;;;;;;4900609;29;20033;-87
2023/01/16 15:36:37;;;;;;;20.40;13.48;;;231.20;2252.80;;;;;;4901042;29;20028;-87
2023/01/16 15:39:18;;;;;;;20.58;13.15;;;231.20;2252.80;;;;;;4901037;29;20060;-86
2023/01/16 15:47:51;;;;;;;34.53;22.02;;;230.90;2252.80;;;;;;4930194;29;20027;-86
2023/01/16 15:50:43;;;;;;;33.88;22.95;;;230.90;2252.80;;;;;;4886820;29;20032;-86
2023/01/16 15:53:09;;;;;;;33.85;21.50;;;230.80;2252.80;;;;;;4869031;29;20123;-87
2023/01/16 15:55:44;;;;;;;35.17;21.63;;;230.80;2252.80;;;;;;4887318;29;20051;-88
2023/01/16 15:58:29;;;;;;;24.40;16.50;;;230.80;2252.80;;;;;;4892501;29;20032;-84
2023/01/16 16:01:01;;;;;;;24.13;15.50;;;230.90;2252.80;;;;;;4888407;29;20119;-84
2023/01/16 16:03:47;;;;;;;30.03;19.90;;;230.90;2252.80;;;;;;4890881;29;20100;-85
2023/01/16 16:06:16;;;;;;;34.47;24.90;;;230.90;2252.80;;;;;;4882860;29;20267;-91
2023/01/16 16:08:48;;;;;;;40.33;28.02;;;230.90;2252.80;;;;;;4886687;29;20032;-87
2023/01/16 16:17:54;;;;;;;34.88;24.83;;;230.90;2252.80;;;;;;4897805;29;20068;-88
2023/01/16 16:20:31;;;;;;;31.88;22.90;;;230.90;2252.80;;;;;;4909256;29;20035;-82
2023/01/16 16:23:12;;;;;;;32.45;20.73;;;231.00;2252.80;;;;;;4898322;29;20132;-85
2023/01/16 16:25:48;;;;;;;22.45;14.68;;;231.00;2252.80;;;;;;4898388;29;20082;-88
2023/01/16 16:28:28;;;;;;;22.38;16.10;;;231.00;2252.80;;;;;;4895933;29;20108;-86
2023/01/16 16:31:13;;;;;;;46.88;29.13;;;231.00;2252.80;;;;;;4899165;29;20114;-85
2023/01/16 16:33:39;;;;;;;44.55;32.38;;;231.00;2252.80;;;;;;4902752;29;20035;-88
2023/01/16 16:36:06;;;;;;;44.70;31.70;;;230.90;2252.80;;;;;;4902703;29;20123;-87
2023/01/16 16:38:43;;;;;;;41.67;29.70;;;230.90;2252.80;;;;;;4897753;29;20055;-87
2023/01/16 16:41:15;;;;;;;43.10;27.48;;;230.90;2252.80;;;;;;4883420;29;20029;-86
2023/01/16 16:43:44;;;;;;;29.83;20.00;;;230.90;2252.80;;;;;;4884028;29;20084;-87
2023/01/16 16:46:22;;;;;;;32.47;22.73;;;230.90;2252.80;;;;;;4883979;29;20112;-88
2023/01/16 16:48:57;;;;;;;30.58;19.92;;;230.90;2252.80;;;;;;4883952;29;20037;-85
2023/01/16 16:51:29;;;;;;;24.27;17.20;;;230.90;2252.80;;;;;;4890921;29;20472;-88
2023/01/16 16:54:25;;;;;;;29.35;16.92;;;230.90;2252.80;;;;;;4890392;29;20028;-84
2023/01/16 16:56:57;;;;;;;27.98;20.30;;;230.90;2252.80;;;;;;4899238;29;20515;-88
2023/01/16 16:59:25;;;;;;;28.92;22.13;;;230.90;2252.80;;;;;;4903611;29;20472;-88
2023/01/16 17:01:54;;;;;;;33.88;26.23;;;231.00;2252.80;;;;;;4897820;29;20044;-88
2023/01/16 17:04:21;;;;;;;38.45;26.90;;;231.00;2252.80;;;;;;4912424;29;20043;-84
2023/01/16 17:06:47;;;;;;;43.00;29.15;;;231.00;2252.80;;;;;;4920489;29;20024;-91
2023/01/16 17:09:17;;;;;;;29.40;17.50;;;231.00;2252.80;;;;;;4903429;29;20031;-89
2023/01/16 17:11:46;;;;;;;25.98;16.95;;;231.10;2252.80;;;;;;4903688;29;20032;-89
2023/01/16 17:14:12;;;;;;;54.72;29.23;;;231.10;2252.80;;;;;;4903822;29;20032;-90
2023/01/16 17:16:39;;;;;;;27.33;17.27;;;231.20;2252.80;;;;;;4904026;29;20531;-92
2023/01/16 17:19:27;;;;;;;26.95;15.45;;;231.20;2252.80;;;;;;4904048;29;20079;-90
2023/01/16 17:21:53;;;;;;;42.35;30.52;;;231.20;2252.80;;;;;;4887333;29;20127;-89
2023/01/16 17:24:19;;;;;;;36.97;23.08;;;231.20;2252.80;;;;;;4871304;29;20517;-89
2023/01/16 17:26:46;;;;;;;37.90;25.80;;;256.00;2252.80;;;;;;4846525;29;20033;-88
2023/01/16 17:29:12;;;;;;;35.85;20.38;;;231.20;2252.80;;;;;;4863988;29;20041;-90
2023/01/16 17:31:40;;;;;;;32.60;20.98;;;231.20;2252.80;;;;;;4847229;29;20052;-90
2023/01/16 17:34:13;;;;;;;21.73;15.00;;;231.30;2252.80;;;;;;4847211;29;20034;-90
2023/01/16 17:36:39;;;;;;;31.45;20.48;;;231.30;2252.80;;;;;;4856506;29;20492;-88
2023/01/16 17:39:04;;;;;;;20.58;14.20;;;231.30;2252.80;;;;;;4865990;29;20037;-90
2023/01/16 17:45:51;;;;;;;19.48;11.98;;;231.30;2252.80;;;;;;4866192;29;20037;-88
2023/01/16 17:47:10;;;;;;;15.82;10.68;;;256.00;2252.80;;;;;;4881757;29;20085;-87
2023/01/16 17:52:22;;;;;;;21.40;16.25;;;256.00;2252.80;;;;;;4881898;29;20055;-90
2023/01/16 17:57:32;;;;;;;33.33;29.77;;;256.10;2252.80;;;;;;4882264;29;20073;-85
2023/01/16 17:59:58;;;;;;;29.67;22.42;;;256.00;2252.80;;;;;;4865049;29;20028;-88
2023/01/16 18:02:24;;;;;;;20.80;15.52;;;256.00;2252.80;;;;;;4871456;29;20040;-89
2023/01/16 18:04:50;;;;;;;24.98;17.52;;;256.00;2252.80;;;;;;4883934;29;20039;-90
2023/01/16 18:07:16;;;;;;;23.50;17.65;;;256.00;2252.80;;;;;;4883576;29;20036;-87
2023/01/16 18:09:42;;;;;;;20.58;16.88;;;256.00;2252.80;;;;;;4883771;29;20556;-87
2023/01/16 18:17:38;;;;;;;20.63;13.70;;;256.10;2252.80;;;;;;4902511;29;20532;-88
2023/01/16 18:20:05;;;;;;;16.45;12.85;;;256.00;2252.80;;;;;;4885902;29;20033;-89
2023/01/16 18:22:34;;;;;;;15.98;10.82;;;256.00;2252.80;;;;;;4886329;29;20037;-89
2023/01/16 18:25:01;;;;;;;20.88;14.80;;;256.00;2252.80;;;;;;4887650;29;20063;-80
2023/01/16 18:27:27;;;;;;;22.10;18.95;;;256.00;2252.80;;;;;;4870345;29;20136;-81
2023/01/16 18:29:53;;;;;;;26.77;18.63;;;256.00;2252.80;;;;;;4869529;29;20061;-89
2023/01/16 18:32:20;;;;;;;20.60;15.38;;;256.00;2252.80;;;;;;4865650;29;20033;-89
2023/01/16 18:34:54;;;;;;;16.60;13.27;;;231.30;2252.80;;;;;;4865548;29;20028;-89
2023/01/16 18:37:41;;;;;;;20.85;15.30;;;231.30;2252.80;;;;;;4864772;29;20036;-90
2023/01/16 19:02:42;;;;;;;28.77;19.13;;;231.30;2252.80;;;;;;4898912;29;20039;-86
2023/01/16 19:05:08;;;;;;;25.90;15.98;;;231.30;2252.80;;;;;;4882905;29;20028;-89
2023/01/16 19:07:35;;;;;;;18.25;13.25;;;231.30;2252.80;;;;;;4875719;29;20558;-86
2023/01/16 19:10:05;;;;;;;20.15;13.23;;;231.30;2252.80;;;;;;4863573;29;20030;-86
2023/01/16 19:12:35;;;;;;;23.33;15.60;;;256.00;2252.80;;;;;;4864020;29;20033;-84
2023/01/16 19:15:02;;;;;;;26.83;18.70;;;256.10;2252.80;;;;;;4863771;29;20093;-84
2023/01/16 19:17:27;;;;;;;22.00;15.70;;;256.10;2252.80;;;;;;4863987;29;20469;-86
2023/01/16 19:19:54;;;;;;;25.85;18.20;;;256.10;2252.80;;;;;;4864148;29;20025;-87
2023/01/16 19:22:22;;;;;;;22.05;15.13;;;256.10;2252.80;;;;;;4863670;29;20037;-86
2023/01/16 19:24:48;;;;;;;21.70;15.38;;;256.10;2252.80;;;;;;4894545;29;20052;-85
2023/01/16 19:27:14;;;;;;;31.98;16.95;;;256.10;2252.80;;;;;;4897696;29;20457;-86
2023/01/16 19:29:40;;;;;;;32.92;21.20;;;256.10;2252.80;;;;;;4882656;29;20033;-86
2023/01/16 19:32:07;;;;;;;32.83;22.10;;;256.10;2252.80;;;;;;4900317;29;20054;-85
2023/01/16 19:34:36;;;;;;;26.13;18.40;;;256.10;2252.80;;;;;;4917774;29;20103;-84
2023/01/16 19:37:06;;;;;;;21.30;13.75;;;256.10;2252.80;;;;;;4900639;29;20028;-87
2023/01/16 19:39:33;;;;;;;19.50;12.85;;;256.10;2252.80;;;;;;4900898;29;20127;-87
2023/01/16 19:47:29;;;;;;;22.75;15.30;;;256.20;2252.80;;;;;;4917527;29;20039;-89
2023/01/16 19:49:55;;;;;;;22.10;16.40;;;256.20;2252.80;;;;;;4901054;29;20032;-86
2023/01/16 19:52:21;;;;;;;29.65;21.17;;;256.10;2252.80;;;;;;4900669;29;20036;-83
2023/01/16 19:54:47;;;;;;;22.90;14.68;;;256.10;2252.80;;;;;;4900878;29;20031;-83
2023/01/16 19:57:13;;;;;;;24.17;14.75;;;256.10;2252.80;;;;;;4903044;29;20437;-87
2023/01/16 19:59:38;;;;;;;18.40;10.27;;;256.20;2252.80;;;;;;4904557;29;20123;-85
2023/01/16 20:02:06;;;;;;;16.55;9.90;;;256.20;2252.80;;;;;;4904279;29;20074;-87
2023/01/16 20:04:36;;;;;;;18.25;11.60;;;256.20;2252.80;;;;;;4920826;29;20055;-88
2023/01/16 20:07:07;;;;;;;21.75;13.27;;;256.20;2252.80;;;;;;4893075;29;20040;-89
2023/01/16 20:09:38;;;;;;;17.77;12.18;;;256.20;2252.80;;;;;;4885907;29;20061;-87
2023/01/16 20:14:50;;;;;;;16.73;10.82;;;256.20;2252.80;;;;;;4902557;29;20035;-91
2023/01/16 20:17:16;;;;;;;13.23;10.00;;;256.20;2252.80;;;;;;4885822;29;20096;-89
2023/01/16 20:19:42;;;;;;;16.33;12.40;;;256.20;2252.80;;;;;;4886184;29;20429;-90
2023/01/16 20:22:09;;;;;;;17.60;13.20;;;256.20;2252.80;;;;;;4886467;29;20511;-89
2023/01/16 20:24:35;;;;;;;15.18;10.73;;;256.10;2252.80;;;;;;4885706;29;20052;-88
2023/01/16 20:27:02;;;;;;;17.33;12.70;;;256.10;2252.80;;;;;;4885544;29;20040;-90
2023/01/16 20:29:29;;;;;;;17.27;10.95;;;256.10;2252.80;;;;;;4885563;29;20165;-91
2023/01/16 20:31:55;;;;;;;19.45;12.55;;;256.10;2252.80;;;;;;4885266;29;20127;-88
2023/01/16 20:34:24;;;;;;;17.15;12.27;;;256.10;2252.80;;;;;;4885160;29;20035;-89
2023/01/16 20:36:51;;;;;;;17.58;12.45;;;256.00;2252.80;;;;;;4885045;29;20028;-85
2023/01/16 20:39:17;;;;;;;20.90;13.82;;;256.00;2252.80;;;;;;4884587;29;20055;-83
2023/01/16 20:47:15;;;;;;;23.45;15.95;;;256.00;2252.80;;;;;;4901281;29;20487;-83
2023/01/16 20:49:41;;;;;;;27.98;17.90;;;256.00;2252.80;;;;;;4902016;29;20032;-86
2023/01/16 20:52:09;;;;;;;40.33;24.80;;;231.30;2252.80;;;;;;4884721;29;20040;-85
2023/01/16 20:54:35;;;;;;;27.90;19.10;;;231.30;2252.80;;;;;;4901231;29;20071;-84
2023/01/16 20:57:01;;;;;;;29.38;20.05;;;256.00;2252.80;;;;;;4893971;29;20029;-84
2023/01/16 20:59:27;;;;;;;40.38;27.88;;;256.00;2252.80;;;;;;4909117;29;20396;-84
2023/01/16 21:01:58;;;;;;;38.33;26.70;;;256.00;2252.80;;;;;;4893516;29;20059;-85
2023/01/16 21:04:24;;;;;;;61.40;39.35;;;231.20;2252.80;;;;;;4894337;29;20024;-84
2023/01/16 21:06:50;;;;;;;55.58;36.83;;;256.00;2252.80;;;;;;4908720;29;20044;-86
2023/01/16 21:09:16;;;;;;;38.00;25.23;;;256.10;2252.80;;;;;;4891559;29;20035;-84
2023/01/16 21:14:29;;;;;;;30.90;20.65;;;256.00;2252.80;;;;;;4908937;29;20035;-85
2023/01/16 21:22:30;;;;;;;44.78;25.55;;;256.00;2252.80;;;;;;4897984;29;20052;-88
2023/01/16 21:24:58;;;;;;;52.30;29.45;;;256.00;2252.80;;;;;;4883917;29;20056;-88
2023/01/16 21:27:25;;;;;;;54.92;30.55;;;256.00;2252.80;;;;;;4900534;29;20549;-87